createdAt,value
2022-11-25T00:02:05.565Z,87.42
2022-11-25T00:07:07.424Z,87.71
2022-11-25T00:12:09.239Z,87.70
2022-11-25T00:17:11.044Z,87.56
2022-11-25T00:22:12.836Z,87.67
2022-11-25T00:27:14.612Z,87.69
2022-11-25T00:32:16.508Z,87.59
2022-11-25T00:37:18.531Z,87.73
2022-11-25T00:42:39.055Z,87.74
2022-11-25T00:47:40.963Z,87.67
2022-11-25T00:52:42.785Z,87.73
2022-11-25T00:57:44.532Z,87.67
2022-11-25T01:02:48.361Z,87.69
2022-11-25T01:07:50.217Z,87.81
2022-11-25T01:12:52.095Z,87.72
2022-11-25T01:17:53.871Z,87.53
2022-11-25T01:22:55.678Z,87.35
2022-11-25T01:27:57.520Z,87.37
2022-11-25T01:32:59.545Z,87.17
2022-11-25T01:38:02.060Z,87.39
2022-11-25T01:43:03.788Z,87.27
2022-11-25T01:48:15.078Z,87.29
2022-11-25T01:53:20.860Z,87.29
2022-11-25T02:03:57.893Z,87.58
2022-11-25T02:09:04.980Z,87.52
2022-11-25T02:14:08.684Z,87.51
2022-11-25T02:19:23.610Z,87.84
2022-11-25T02:24:34.761Z,87.68
2022-11-25T02:29:37.900Z,87.65
2022-11-25T02:34:50.916Z,87.72
2022-11-25T02:39:55.176Z,87.68
2022-11-25T02:44:57.183Z,87.69
2022-11-25T02:49:59.239Z,87.60
2022-11-25T02:55:01.045Z,87.76
2022-11-25T03:00:04.437Z,87.84
2022-11-25T03:05:06.296Z,87.48
2022-11-25T03:10:08.182Z,87.55
2022-11-25T03:15:10.754Z,87.64
2022-11-25T03:20:13.239Z,87.25
2022-11-25T03:25:16.650Z,87.51
2022-11-25T03:30:22.997Z,87.33
2022-11-25T03:35:27.832Z,87.24
2022-11-25T03:40:29.738Z,87.13
2022-11-25T03:45:31.599Z,87.33
2022-11-25T03:50:36.866Z,87.29
2022-11-25T03:55:38.649Z,87.06
2022-11-25T04:00:40.729Z,87.19
2022-11-25T04:05:42.672Z,87.21
2022-11-25T04:10:44.644Z,86.84
2022-11-25T04:15:49.422Z,86.74
2022-11-25T04:20:52.632Z,87.08
2022-11-25T04:25:55.405Z,86.75
2022-11-25T04:31:08.459Z,86.59
2022-11-25T04:36:13.663Z,86.53
2022-11-25T04:41:16.171Z,86.68
2022-11-25T04:46:25.059Z,86.66
2022-11-25T04:51:27.078Z,86.77
2022-11-25T04:56:33.752Z,86.42
2022-11-25T05:01:35.817Z,86.41
2022-11-25T05:06:47.039Z,86.21
2022-11-25T05:11:49.932Z,86.13
2022-11-25T05:16:52.561Z,86.28
2022-11-25T05:21:54.875Z,86.08
2022-11-25T05:26:57.262Z,86.16
2022-11-25T05:31:59.760Z,85.95
2022-11-25T05:37:01.639Z,85.90
2022-11-25T05:42:04.990Z,85.64
2022-11-25T05:47:07.026Z,85.44
2022-11-25T05:52:09.625Z,85.36
2022-11-25T05:57:21.715Z,85.18
2022-11-25T06:02:33.811Z,85.19
2022-11-25T06:07:36.786Z,84.87
2022-11-25T06:12:39.303Z,84.87
2022-11-25T06:17:41.420Z,84.72
2022-11-25T06:22:49.333Z,84.78
2022-11-25T06:28:12.522Z,84.25
2022-11-25T06:33:16.960Z,84.25
2022-11-25T06:38:21.147Z,84.27
2022-11-25T06:43:22.965Z,84.15
2022-11-25T06:48:25.101Z,84.14
2022-11-25T06:53:27.824Z,84.56
2022-11-25T06:58:36.234Z,84.50
2022-11-25T07:03:38.633Z,84.52
2022-11-25T07:08:41.646Z,84.55
2022-11-25T07:13:44.597Z,84.26
2022-11-25T07:18:46.818Z,84.21
2022-11-25T07:23:50.333Z,84.04
2022-11-25T07:28:54.726Z,84.17
2022-11-25T07:34:03.723Z,84.47
2022-11-25T07:39:17.427Z,84.29
2022-11-25T07:44:22.061Z,84.50
2022-11-25T07:49:27.016Z,84.44
2022-11-25T07:54:29.820Z,84.46
2022-11-25T07:59:32.050Z,84.81
2022-11-25T08:04:34.309Z,84.69
2022-11-25T08:09:36.376Z,84.97
2022-11-25T08:14:38.404Z,84.87
2022-11-25T08:19:40.634Z,84.89
2022-11-25T08:24:43.127Z,84.84
2022-11-25T08:29:45.058Z,85.25
2022-11-25T08:34:46.909Z,85.20
2022-11-25T08:39:52.916Z,85.19
2022-11-25T08:44:57.735Z,85.24
2022-11-25T08:50:00.004Z,85.45
2022-11-25T08:55:02.055Z,85.22
2022-11-25T09:00:08.047Z,85.41
2022-11-25T09:05:13.051Z,85.61
2022-11-25T09:10:17.687Z,85.26
2022-11-25T09:15:19.541Z,85.59
2022-11-25T09:20:21.915Z,85.45
2022-11-25T09:25:23.726Z,85.50
2022-11-25T09:30:26.260Z,85.57
2022-11-25T09:35:28.264Z,85.36
2022-11-25T09:40:44.118Z,85.56
2022-11-25T09:46:17.194Z,85.62
2022-11-25T09:51:24.415Z,85.52
2022-11-25T09:56:44.096Z,85.57
2022-11-25T10:01:52.530Z,85.53
2022-11-25T10:07:01.433Z,85.63
2022-11-25T10:12:28.137Z,85.75
2022-11-25T10:17:36.209Z,85.97
2022-11-25T10:22:43.147Z,85.81
2022-11-25T10:28:02.491Z,85.71
2022-11-25T10:33:25.145Z,85.68
2022-11-25T10:38:39.985Z,85.62
2022-11-25T10:43:42.895Z,85.76
2022-11-25T10:48:50.372Z,85.56
2022-11-25T10:54:13.833Z,85.32
2022-11-25T10:59:27.465Z,85.28
2022-11-25T11:04:29.685Z,85.33
2022-11-25T11:09:36.812Z,85.21
2022-11-25T11:14:38.837Z,85.12
2022-11-25T11:19:41.150Z,84.94
2022-11-25T11:24:42.968Z,84.60
2022-11-25T11:29:44.755Z,84.27
2022-11-25T11:35:02.915Z,83.99
2022-11-25T11:40:07.693Z,83.31
2022-11-25T11:45:24.869Z,82.99
2022-11-25T11:50:29.653Z,83.07
2022-11-25T11:56:11.945Z,83.00
2022-11-25T12:01:31.074Z,83.01
2022-11-25T12:06:35.573Z,83.10
2022-11-25T12:11:44.382Z,83.07
2022-11-25T12:16:56.017Z,82.99
2022-11-25T12:22:13.700Z,83.02
2022-11-25T12:27:36.587Z,82.92
2022-11-25T12:32:38.590Z,82.91
2022-11-25T12:38:04.746Z,82.98
2022-11-25T12:43:11.248Z,83.22
2022-11-25T12:48:17.293Z,83.07
2022-11-25T12:53:35.911Z,82.96
2022-11-25T12:58:49.853Z,82.99
2022-11-25T13:04:36.056Z,82.98
2022-11-25T13:10:07.553Z,82.91
2022-11-25T13:15:33.672Z,83.08
2022-11-25T13:20:43.854Z,83.38
2022-11-25T13:25:48.285Z,83.35
2022-11-25T13:30:52.358Z,83.00
2022-11-25T13:35:55.814Z,83.12
2022-11-25T13:41:16.462Z,82.86
2022-11-25T13:46:45.885Z,82.82
2022-11-25T13:51:54.083Z,83.02
2022-11-25T13:57:11.058Z,82.94
2022-11-25T14:02:28.256Z,83.02
2022-11-25T14:07:36.637Z,83.12
2022-11-25T14:13:02.394Z,83.21
2022-11-25T14:19:16.901Z,83.21
2022-11-25T14:24:38.992Z,83.24
2022-11-25T14:29:48.971Z,83.20
2022-11-25T14:35:00.007Z,83.08
2022-11-25T14:40:07.221Z,83.06
2022-11-25T14:45:25.017Z,83.25
2022-11-25T14:50:34.776Z,83.04
2022-11-25T14:55:38.129Z,82.97
2022-11-25T15:01:08.003Z,83.11
2022-11-25T15:06:14.488Z,83.11
2022-11-25T15:11:20.174Z,83.20
2022-11-25T15:16:26.526Z,83.45
2022-11-25T15:21:53.903Z,83.40
2022-11-25T15:27:02.983Z,83.21
2022-11-25T15:32:05.145Z,83.08
2022-11-25T15:37:11.767Z,83.15
2022-11-25T15:42:21.957Z,83.01
2022-11-25T15:47:32.129Z,82.97
2022-11-25T15:52:38.436Z,83.04
2022-11-25T15:57:42.128Z,82.92
2022-11-25T16:02:44.040Z,83.11
2022-11-25T16:07:52.321Z,83.16
2022-11-25T16:13:23.067Z,83.09
2022-11-25T16:18:40.720Z,83.14
2022-11-25T16:23:53.054Z,83.08
2022-11-25T16:29:00.901Z,83.17
2022-11-25T16:34:21.014Z,83.05
2022-11-25T16:39:22.805Z,83.00
2022-11-25T16:44:27.348Z,83.03
2022-11-25T16:49:32.007Z,82.94
2022-11-25T16:54:34.059Z,83.17
2022-11-25T16:59:41.583Z,83.24
2022-11-25T17:04:43.601Z,83.29
2022-11-25T17:09:46.603Z,83.10
2022-11-25T17:14:49.353Z,83.01
2022-11-25T17:19:52.216Z,83.17
2022-11-25T17:24:54.497Z,83.16
2022-11-25T17:30:00.048Z,82.98
2022-11-25T17:35:02.104Z,83.03
2022-11-25T17:40:04.281Z,83.08
2022-11-25T17:45:18.667Z,83.30
2022-11-25T17:50:25.970Z,83.40
2022-11-25T17:55:28.055Z,83.40
2022-11-25T18:00:33.691Z,83.13
2022-11-25T18:05:35.462Z,83.30
2022-11-25T18:10:39.519Z,83.43
2022-11-25T18:15:41.604Z,83.29
2022-11-25T18:20:43.777Z,83.30
2022-11-25T18:25:46.501Z,83.42
2022-11-25T18:30:49.716Z,83.24
2022-11-25T18:35:52.031Z,83.46
2022-11-25T18:40:55.347Z,83.71
2022-11-25T18:45:59.300Z,83.67
2022-11-25T18:51:02.396Z,83.83
2022-11-25T18:56:05.358Z,83.91
2022-11-25T19:01:13.292Z,83.99
2022-11-25T19:06:15.482Z,83.92
2022-11-25T19:11:29.515Z,84.07
2022-11-25T19:16:31.450Z,84.05
2022-11-25T19:21:34.078Z,84.11
2022-11-25T19:26:43.380Z,84.19
2022-11-25T19:31:45.787Z,84.30
2022-11-25T19:36:47.625Z,84.54
2022-11-25T19:41:49.469Z,84.37
2022-11-25T19:52:19.672Z,84.60
2022-11-25T19:57:24.167Z,84.69
2022-11-25T20:02:29.632Z,84.85
2022-11-25T20:07:32.354Z,84.77
2022-11-25T20:12:34.292Z,84.81
2022-11-25T20:17:37.734Z,84.86
2022-11-25T20:22:44.538Z,84.96
2022-11-25T20:27:46.589Z,85.01
2022-11-25T20:32:48.562Z,84.95
2022-11-25T20:37:58.248Z,85.13
2022-11-25T20:43:00.710Z,85.09
2022-11-25T20:48:02.635Z,85.02
2022-11-25T20:53:04.893Z,84.92
2022-11-25T20:58:17.670Z,85.24
2022-11-25T21:03:19.592Z,84.99
2022-11-25T21:08:24.676Z,85.13
2022-11-25T21:13:29.660Z,85.03
2022-11-25T21:18:31.648Z,85.23
2022-11-25T21:23:36.699Z,85.19
2022-11-25T21:28:42.570Z,85.15
2022-11-25T21:33:46.208Z,85.40
2022-11-25T21:38:51.663Z,85.34
2022-11-25T21:43:53.544Z,85.37
2022-11-25T21:48:55.254Z,85.30
2022-11-25T21:53:57.203Z,85.53
2022-11-25T21:59:01.865Z,85.41
2022-11-25T22:04:03.597Z,85.54
2022-11-25T22:09:05.451Z,85.50
2022-11-25T22:14:39.748Z,85.48
2022-11-25T22:19:42.419Z,85.42
2022-11-25T22:24:45.166Z,85.59
2022-11-25T22:29:47.494Z,85.80
2022-11-25T22:34:49.251Z,85.77
2022-11-25T22:39:51.592Z,85.77
2022-11-25T22:44:56.072Z,85.90
2022-11-25T22:49:58.299Z,86.02
2022-11-25T22:55:16.581Z,86.11
2022-11-25T23:00:38.610Z,85.97
2022-11-25T23:05:40.938Z,85.98
2022-11-25T23:10:44.209Z,86.22
2022-11-25T23:15:49.807Z,86.15
2022-11-25T23:20:51.532Z,86.13
2022-11-25T23:25:54.586Z,86.26
2022-11-25T23:30:58.574Z,86.17
2022-11-25T23:36:06.088Z,86.39
2022-11-25T23:41:15.888Z,86.32
2022-11-25T23:46:23.078Z,86.51
2022-11-25T23:51:27.408Z,86.61
2022-11-25T23:56:29.215Z,86.60
